createdAt,value
2018-07-04T00:03:44.595Z,96.70
2018-07-04T00:10:13.004Z,96.00
2018-07-04T00:16:41.582Z,96.50
2018-07-04T00:23:10.909Z,97.30
2018-07-04T00:29:39.572Z,98.10
2018-07-04T00:36:08.307Z,98.20
2018-07-04T00:42:36.902Z,98.90
2018-07-04T00:49:05.381Z,99.10
2018-07-04T00:55:33.949Z,99.70
2018-07-04T01:02:02.471Z,99.60
2018-07-04T01:08:30.849Z,99.90
2018-07-04T01:14:59.315Z,99.90
2018-07-04T01:21:27.736Z,99.90
2018-07-04T01:27:56.382Z,99.90
2018-07-04T01:34:25.199Z,99.90
2018-07-04T01:40:54.181Z,99.90
2018-07-04T01:47:22.592Z,99.90
2018-07-04T01:53:51.843Z,99.90
2018-07-04T02:00:21.287Z,99.90
2018-07-04T02:06:51.013Z,99.90
2018-07-04T02:13:20.003Z,99.90
2018-07-04T02:19:48.917Z,99.90
2018-07-04T02:26:17.699Z,99.90
2018-07-04T02:32:45.982Z,99.90
2018-07-04T02:39:14.715Z,99.90
2018-07-04T02:45:43.181Z,99.90
2018-07-04T02:52:11.653Z,99.90
2018-07-04T02:58:40.263Z,99.90
2018-07-04T03:05:08.848Z,99.90
2018-07-04T03:11:37.287Z,99.90
2018-07-04T03:18:06.157Z,99.90
2018-07-04T03:24:34.737Z,99.90
2018-07-04T03:37:25.859Z,99.90
2018-07-04T03:43:54.419Z,99.90
2018-07-04T03:50:22.907Z,99.90
2018-07-04T03:56:51.680Z,99.90
2018-07-04T04:03:20.875Z,99.90
2018-07-04T04:09:50.273Z,99.90
2018-07-04T04:16:18.891Z,99.90
2018-07-04T04:22:47.681Z,99.90
2018-07-04T04:29:16.265Z,99.90
2018-07-04T04:35:44.875Z,99.90
2018-07-04T04:42:13.351Z,99.90
2018-07-04T04:48:41.910Z,99.90
2018-07-04T04:55:10.301Z,99.90
2018-07-04T05:01:38.752Z,99.90
2018-07-04T05:08:07.482Z,99.90
2018-07-04T05:14:35.774Z,99.90
2018-07-04T05:21:04.773Z,99.90
2018-07-04T05:27:33.253Z,99.90
2018-07-04T05:34:01.544Z,99.90
2018-07-04T05:40:30.187Z,99.90
2018-07-04T05:46:58.471Z,99.90
2018-07-04T05:53:27.039Z,99.90
2018-07-04T05:59:55.639Z,99.90
2018-07-04T06:06:24.329Z,99.90
2018-07-04T06:12:53.227Z,99.90
2018-07-04T06:19:21.909Z,99.90
2018-07-04T06:25:50.819Z,99.90
2018-07-04T06:32:19.448Z,99.90
2018-07-04T06:38:29.153Z,99.90
2018-07-04T06:44:32.791Z,99.90
2018-07-04T06:50:36.593Z,99.90
2018-07-04T06:56:40.113Z,99.90
2018-07-04T07:02:43.666Z,99.90
2018-07-04T07:09:06.090Z,99.80
2018-07-04T07:15:34.662Z,98.80
2018-07-04T07:22:03.317Z,98.40
2018-07-04T07:28:31.810Z,97.30
2018-07-04T07:35:00.700Z,95.90
2018-07-04T07:41:29.307Z,94.50
2018-07-04T07:47:57.782Z,93.30
2018-07-04T07:54:26.568Z,91.70
2018-07-04T08:00:55.335Z,91.70
2018-07-04T08:07:23.964Z,89.30
2018-07-04T08:13:53.267Z,82.50
2018-07-04T08:20:21.877Z,75.80
2018-07-04T08:26:50.663Z,54.70
2018-07-04T08:33:19.200Z,59.70
2018-07-04T08:39:47.658Z,54.70
2018-07-04T08:46:16.173Z,54.60
2018-07-04T08:52:45.324Z,52.10
2018-07-04T08:59:14.009Z,48.30
2018-07-04T09:05:42.956Z,46.50
2018-07-04T09:12:11.448Z,45.80
2018-07-04T09:18:40.136Z,45.70
2018-07-04T09:25:09.040Z,42.10
2018-07-04T09:31:37.542Z,41.00
2018-07-04T09:38:06.334Z,40.90
2018-07-04T09:44:34.705Z,39.80
2018-07-04T09:51:03.463Z,40.30
2018-07-04T09:57:32.112Z,41.70
2018-07-04T10:04:01.374Z,40.20
2018-07-04T10:10:29.970Z,40.00
2018-07-04T10:16:58.575Z,37.50
2018-07-04T10:23:27.213Z,38.20
2018-07-04T10:29:56.029Z,37.40
2018-07-04T10:36:25.010Z,36.60
2018-07-04T10:42:53.714Z,35.90
2018-07-04T10:49:22.331Z,34.50
2018-07-04T10:55:51.447Z,34.20
2018-07-04T11:02:20.244Z,33.70
2018-07-04T11:08:48.860Z,33.20
2018-07-04T11:15:17.273Z,33.40
2018-07-04T11:21:45.951Z,33.00
2018-07-04T11:28:14.490Z,34.50
2018-07-04T11:34:43.135Z,34.50
2018-07-04T11:41:11.487Z,33.30
2018-07-04T11:47:21.635Z,33.00
2018-07-04T11:53:25.285Z,34.50
2018-07-04T11:59:29.020Z,34.10
2018-07-04T12:05:51.500Z,34.10
2018-07-04T12:12:01.814Z,31.80
2018-07-04T12:18:05.461Z,32.10
2018-07-04T12:24:09.178Z,33.60
2018-07-04T12:30:12.701Z,31.50
2018-07-04T12:36:16.250Z,33.60
2018-07-04T12:42:20.496Z,32.70
2018-07-04T12:48:24.634Z,33.30
2018-07-04T12:54:33.484Z,31.00
2018-07-04T13:00:55.871Z,31.20
2018-07-04T13:07:25.433Z,32.10
2018-07-04T13:13:53.833Z,31.50
2018-07-04T13:20:22.724Z,31.90
2018-07-04T13:26:51.606Z,31.00
2018-07-04T13:33:20.289Z,31.10
2018-07-04T13:39:48.890Z,31.00
2018-07-04T13:46:17.584Z,30.40
2018-07-04T13:52:46.805Z,29.40
2018-07-04T13:59:15.327Z,28.60
2018-07-04T14:05:43.960Z,30.00
2018-07-04T14:12:12.551Z,29.50
2018-07-04T14:18:41.159Z,32.60
2018-07-04T14:25:09.838Z,33.30
2018-07-04T14:31:38.443Z,33.90
2018-07-04T14:38:07.063Z,33.30
2018-07-04T14:44:35.842Z,32.40
2018-07-04T14:51:04.412Z,33.10
2018-07-04T14:57:32.946Z,31.00
2018-07-04T15:04:01.741Z,32.20
2018-07-04T15:10:30.426Z,31.90
2018-07-04T15:16:59.172Z,31.20
2018-07-04T15:23:27.812Z,31.50
2018-07-04T15:29:56.589Z,29.70
2018-07-04T15:36:25.188Z,29.60
2018-07-04T15:42:53.930Z,29.40
2018-07-04T15:49:22.699Z,30.00
2018-07-04T15:55:51.628Z,32.60
2018-07-04T16:02:20.796Z,31.80
2018-07-04T16:08:49.654Z,31.40
2018-07-04T16:16:21.490Z,34.50
2018-07-04T16:22:50.060Z,35.80
2018-07-04T16:29:18.591Z,36.70
2018-07-04T16:35:47.702Z,35.30
2018-07-04T16:42:16.190Z,32.60
2018-07-04T16:48:45.020Z,33.30
2018-07-04T16:55:13.891Z,29.80
2018-07-04T17:01:42.456Z,31.00
2018-07-04T17:08:11.299Z,29.30
2018-07-04T17:14:39.747Z,28.30
2018-07-04T17:21:08.545Z,28.00
2018-07-04T17:27:37.216Z,27.50
2018-07-04T17:34:05.656Z,28.00
2018-07-04T17:40:34.003Z,32.20
2018-07-04T17:47:02.554Z,35.20
2018-07-04T17:53:31.051Z,38.00
2018-07-04T17:59:59.836Z,37.90
2018-07-04T18:06:28.629Z,38.70
2018-07-04T18:19:20.007Z,43.20
2018-07-04T18:25:48.396Z,43.10
2018-07-04T18:32:17.645Z,44.60
2018-07-04T18:38:46.263Z,46.30
2018-07-04T18:45:14.884Z,46.10
2018-07-04T18:51:43.652Z,45.30
2018-07-04T18:58:12.288Z,45.20
2018-07-04T19:04:40.809Z,46.00
2018-07-04T19:11:09.525Z,47.30
2018-07-04T19:17:37.923Z,48.70
2018-07-04T19:37:07.992Z,50.50
2018-07-04T19:43:36.577Z,52.70
2018-07-04T19:50:05.121Z,53.80
2018-07-04T19:56:33.824Z,55.20
2018-07-04T20:03:02.441Z,57.10
2018-07-04T20:09:31.580Z,56.60
2018-07-04T20:16:00.564Z,56.00
2018-07-04T20:22:29.026Z,58.10
2018-07-04T20:28:57.635Z,59.00
2018-07-04T20:35:26.182Z,59.10
2018-07-04T20:41:54.865Z,59.90
2018-07-04T20:48:23.385Z,59.90
2018-07-04T20:54:52.227Z,62.00
2018-07-04T21:01:22.542Z,64.40
2018-07-04T21:07:51.458Z,67.50
2018-07-04T21:14:20.475Z,69.90
2018-07-04T21:20:49.075Z,70.40
2018-07-04T21:27:17.635Z,73.00
2018-07-04T21:33:46.186Z,75.50
2018-07-04T21:40:14.552Z,78.50
2018-07-04T21:46:43.149Z,79.00
2018-07-04T21:53:11.924Z,82.80
2018-07-04T21:59:40.616Z,86.60
2018-07-04T22:06:09.686Z,87.10
2018-07-04T22:12:37.991Z,90.20
2018-07-04T22:19:06.612Z,91.20
2018-07-04T22:25:35.020Z,92.00
2018-07-04T22:32:03.500Z,92.80
2018-07-04T22:38:32.186Z,93.40
2018-07-04T22:45:01.076Z,94.70
2018-07-04T22:51:29.626Z,95.30
2018-07-04T22:57:58.503Z,96.20
2018-07-04T23:04:27.158Z,97.20
2018-07-04T23:10:55.822Z,98.30
2018-07-04T23:17:24.376Z,98.90
2018-07-04T23:23:52.953Z,98.80
2018-07-04T23:30:22.061Z,99.50
2018-07-04T23:36:51.557Z,99.90
2018-07-04T23:43:20.679Z,99.90
2018-07-04T23:49:49.401Z,99.90
2018-07-04T23:56:18.508Z,99.90
